sensor_id;sensor_type;location;lat;lon;timestamp;P1;durP1;ratioP1;P2;durP2;ratioP2
29044;SDS011;16133;49.486;12.176;2022-12-11T00:02:21;33.75;;;13.45;;
29044;SDS011;16133;49.486;12.176;2022-12-11T00:04:46;35.00;;;12.80;;
29044;SDS011;16133;49.486;12.176;2022-12-11T00:07:11;33.53;;;13.05;;
29044;SDS011;16133;49.486;12.176;2022-12-11T00:09:37;38.22;;;13.68;;
29044;SDS011;16133;49.486;12.176;2022-12-11T00:12:02;37.10;;;13.85;;
29044;SDS011;16133;49.486;12.176;2022-12-11T00:14:29;36.88;;;12.45;;
29044;SDS011;16133;49.486;12.176;2022-12-11T00:16:55;38.28;;;13.50;;
29044;SDS011;16133;49.486;12.176;2022-12-11T00:19:20;37.33;;;13.57;;
29044;SDS011;16133;49.486;12.176;2022-12-11T00:21:45;31.30;;;12.95;;
29044;SDS011;16133;49.486;12.176;2022-12-11T00:24:11;37.65;;;13.57;;
29044;SDS011;16133;49.486;12.176;2022-12-11T00:26:37;36.97;;;13.40;;
29044;SDS011;16133;49.486;12.176;2022-12-11T00:29:02;37.78;;;13.60;;
29044;SDS011;16133;49.486;12.176;2022-12-11T00:31:28;36.40;;;13.85;;
29044;SDS011;16133;49.486;12.176;2022-12-11T00:33:53;36.03;;;13.13;;
29044;SDS011;16133;49.486;12.176;2022-12-11T00:36:23;42.60;;;15.40;;
29044;SDS011;16133;49.486;12.176;2022-12-11T00:38:50;38.88;;;13.88;;
29044;SDS011;16133;49.486;12.176;2022-12-11T00:41:15;37.40;;;14.60;;
29044;SDS011;16133;49.486;12.176;2022-12-11T00:43:41;37.97;;;15.48;;
29044;SDS011;16133;49.486;12.176;2022-12-11T00:46:08;43.97;;;16.98;;
29044;SDS011;16133;49.486;12.176;2022-12-11T00:48:33;42.10;;;15.38;;
29044;SDS011;16133;49.486;12.176;2022-12-11T00:50:59;37.83;;;14.85;;
29044;SDS011;16133;49.486;12.176;2022-12-11T00:53:24;44.72;;;16.67;;
29044;SDS011;16133;49.486;12.176;2022-12-11T00:55:50;46.50;;;17.52;;
29044;SDS011;16133;49.486;12.176;2022-12-11T00:58:15;41.17;;;16.75;;
29044;SDS011;16133;49.486;12.176;2022-12-11T01:00:41;40.42;;;15.23;;
29044;SDS011;16133;49.486;12.176;2022-12-11T01:03:07;40.35;;;14.25;;
29044;SDS011;16133;49.486;12.176;2022-12-11T01:05:33;40.60;;;15.20;;
29044;SDS011;16133;49.486;12.176;2022-12-11T01:07:59;37.50;;;14.05;;
29044;SDS011;16133;49.486;12.176;2022-12-11T01:10:24;40.25;;;14.20;;
29044;SDS011;16133;49.486;12.176;2022-12-11T01:15:15;37.35;;;14.30;;
29044;SDS011;16133;49.486;12.176;2022-12-11T01:17:41;43.88;;;14.63;;
29044;SDS011;16133;49.486;12.176;2022-12-11T01:20:07;42.97;;;14.77;;
29044;SDS011;16133;49.486;12.176;2022-12-11T01:22:32;38.45;;;14.25;;
29044;SDS011;16133;49.486;12.176;2022-12-11T01:24:58;37.95;;;14.10;;
29044;SDS011;16133;49.486;12.176;2022-12-11T01:27:23;35.38;;;13.05;;
29044;SDS011;16133;49.486;12.176;2022-12-11T01:29:49;36.65;;;13.10;;
29044;SDS011;16133;49.486;12.176;2022-12-11T01:32:14;38.97;;;13.13;;
29044;SDS011;16133;49.486;12.176;2022-12-11T01:34:40;33.50;;;12.43;;
29044;SDS011;16133;49.486;12.176;2022-12-11T01:37:05;35.67;;;12.93;;
29044;SDS011;16133;49.486;12.176;2022-12-11T01:39:31;31.98;;;12.55;;
29044;SDS011;16133;49.486;12.176;2022-12-11T01:41:57;35.50;;;13.55;;
29044;SDS011;16133;49.486;12.176;2022-12-11T01:46:49;31.23;;;12.48;;
29044;SDS011;16133;49.486;12.176;2022-12-11T01:49:15;33.88;;;13.40;;
29044;SDS011;16133;49.486;12.176;2022-12-11T01:51:45;34.13;;;12.93;;
29044;SDS011;16133;49.486;12.176;2022-12-11T01:54:16;36.67;;;13.32;;
29044;SDS011;16133;49.486;12.176;2022-12-11T01:56:45;32.80;;;11.85;;
29044;SDS011;16133;49.486;12.176;2022-12-11T01:59:12;30.85;;;12.90;;
29044;SDS011;16133;49.486;12.176;2022-12-11T02:04:10;35.80;;;13.05;;
29044;SDS011;16133;49.486;12.176;2022-12-11T02:09:12;31.95;;;13.38;;
29044;SDS011;16133;49.486;12.176;2022-12-11T02:11:46;36.33;;;13.68;;
29044;SDS011;16133;49.486;12.176;2022-12-11T02:17:06;31.33;;;13.10;;
29044;SDS011;16133;49.486;12.176;2022-12-11T02:19:54;36.25;;;13.15;;
29044;SDS011;16133;49.486;12.176;2022-12-11T02:22:27;34.67;;;13.10;;
29044;SDS011;16133;49.486;12.176;2022-12-11T02:25:25;35.30;;;12.48;;
29044;SDS011;16133;49.486;12.176;2022-12-11T02:28:05;39.63;;;13.20;;
29044;SDS011;16133;49.486;12.176;2022-12-11T02:30:32;38.65;;;13.75;;
29044;SDS011;16133;49.486;12.176;2022-12-11T02:33:01;45.95;;;14.52;;
29044;SDS011;16133;49.486;12.176;2022-12-11T02:37:56;44.90;;;13.65;;
29044;SDS011;16133;49.486;12.176;2022-12-11T02:40:27;43.35;;;15.05;;
29044;SDS011;16133;49.486;12.176;2022-12-11T02:42:56;45.60;;;15.35;;
29044;SDS011;16133;49.486;12.176;2022-12-11T02:45:23;41.58;;;15.15;;
29044;SDS011;16133;49.486;12.176;2022-12-11T02:47:51;46.88;;;15.27;;
29044;SDS011;16133;49.486;12.176;2022-12-11T02:50:17;42.60;;;15.30;;
29044;SDS011;16133;49.486;12.176;2022-12-11T02:52:45;42.55;;;14.77;;
29044;SDS011;16133;49.486;12.176;2022-12-11T02:55:13;44.28;;;14.98;;
29044;SDS011;16133;49.486;12.176;2022-12-11T03:00:12;45.97;;;15.88;;
29044;SDS011;16133;49.486;12.176;2022-12-11T03:02:38;48.72;;;16.52;;
29044;SDS011;16133;49.486;12.176;2022-12-11T03:05:05;54.60;;;16.58;;
29044;SDS011;16133;49.486;12.176;2022-12-11T03:07:32;50.88;;;17.45;;
29044;SDS011;16133;49.486;12.176;2022-12-11T03:09:58;51.85;;;16.77;;
29044;SDS011;16133;49.486;12.176;2022-12-11T03:12:27;41.50;;;15.75;;
29044;SDS011;16133;49.486;12.176;2022-12-11T03:14:56;42.08;;;14.68;;
29044;SDS011;16133;49.486;12.176;2022-12-11T03:20:21;36.22;;;14.10;;
29044;SDS011;16133;49.486;12.176;2022-12-11T03:25:53;34.08;;;12.70;;
29044;SDS011;16133;49.486;12.176;2022-12-11T03:28:29;36.75;;;14.05;;
29044;SDS011;16133;49.486;12.176;2022-12-11T03:31:04;35.65;;;13.48;;
29044;SDS011;16133;49.486;12.176;2022-12-11T03:33:37;36.65;;;13.82;;
29044;SDS011;16133;49.486;12.176;2022-12-11T03:36:09;40.55;;;14.88;;
29044;SDS011;16133;49.486;12.176;2022-12-11T03:38:50;37.80;;;14.18;;
29044;SDS011;16133;49.486;12.176;2022-12-11T03:41:21;35.85;;;13.55;;
29044;SDS011;16133;49.486;12.176;2022-12-11T03:43:49;37.85;;;13.27;;
29044;SDS011;16133;49.486;12.176;2022-12-11T03:46:17;36.83;;;13.13;;
29044;SDS011;16133;49.486;12.176;2022-12-11T03:48:46;37.47;;;14.30;;
29044;SDS011;16133;49.486;12.176;2022-12-11T03:51:13;32.50;;;12.90;;
29044;SDS011;16133;49.486;12.176;2022-12-11T03:53:41;41.00;;;15.32;;
29044;SDS011;16133;49.486;12.176;2022-12-11T03:56:08;40.90;;;13.77;;
29044;SDS011;16133;49.486;12.176;2022-12-11T03:58:37;39.55;;;13.27;;
29044;SDS011;16133;49.486;12.176;2022-12-11T04:01:03;41.15;;;14.15;;
29044;SDS011;16133;49.486;12.176;2022-12-11T04:03:32;40.25;;;14.88;;
29044;SDS011;16133;49.486;12.176;2022-12-11T04:05:57;38.92;;;13.93;;
29044;SDS011;16133;49.486;12.176;2022-12-11T04:08:23;38.10;;;14.18;;
29044;SDS011;16133;49.486;12.176;2022-12-11T04:10:49;42.22;;;13.98;;
29044;SDS011;16133;49.486;12.176;2022-12-11T04:13:35;39.63;;;13.20;;
29044;SDS011;16133;49.486;12.176;2022-12-11T04:16:01;42.47;;;14.30;;
29044;SDS011;16133;49.486;12.176;2022-12-11T04:18:26;49.00;;;16.33;;
29044;SDS011;16133;49.486;12.176;2022-12-11T04:21:10;39.45;;;14.35;;
29044;SDS011;16133;49.486;12.176;2022-12-11T04:23:54;52.10;;;17.27;;
29044;SDS011;16133;49.486;12.176;2022-12-11T04:26:38;45.33;;;16.38;;
29044;SDS011;16133;49.486;12.176;2022-12-11T04:29:03;48.25;;;17.75;;
29044;SDS011;16133;49.486;12.176;2022-12-11T04:31:29;50.45;;;16.88;;
29044;SDS011;16133;49.486;12.176;2022-12-11T04:33:54;56.92;;;16.83;;
29044;SDS011;16133;49.486;12.176;2022-12-11T04:36:19;51.67;;;17.35;;
29044;SDS011;16133;49.486;12.176;2022-12-11T04:38:45;49.25;;;15.93;;
29044;SDS011;16133;49.486;12.176;2022-12-11T04:41:11;43.78;;;15.13;;
29044;SDS011;16133;49.486;12.176;2022-12-11T04:43:38;41.67;;;16.05;;
29044;SDS011;16133;49.486;12.176;2022-12-11T04:46:08;46.38;;;14.77;;
29044;SDS011;16133;49.486;12.176;2022-12-11T04:48:34;42.28;;;15.88;;
29044;SDS011;16133;49.486;12.176;2022-12-11T04:51:00;41.63;;;15.10;;
29044;SDS011;16133;49.486;12.176;2022-12-11T04:53:26;43.33;;;15.25;;
29044;SDS011;16133;49.486;12.176;2022-12-11T04:55:52;42.15;;;15.50;;
29044;SDS011;16133;49.486;12.176;2022-12-11T04:58:17;33.53;;;14.50;;
29044;SDS011;16133;49.486;12.176;2022-12-11T05:00:43;36.05;;;14.07;;
29044;SDS011;16133;49.486;12.176;2022-12-11T05:03:08;41.65;;;14.40;;
29044;SDS011;16133;49.486;12.176;2022-12-11T05:05:34;33.88;;;13.25;;
29044;SDS011;16133;49.486;12.176;2022-12-11T05:08:00;40.80;;;13.60;;
29044;SDS011;16133;49.486;12.176;2022-12-11T05:10:25;34.65;;;13.23;;
29044;SDS011;16133;49.486;12.176;2022-12-11T05:12:51;38.83;;;13.60;;
29044;SDS011;16133;49.486;12.176;2022-12-11T05:15:16;36.75;;;14.05;;
29044;SDS011;16133;49.486;12.176;2022-12-11T05:17:42;41.70;;;13.10;;
29044;SDS011;16133;49.486;12.176;2022-12-11T05:20:07;38.33;;;14.20;;
29044;SDS011;16133;49.486;12.176;2022-12-11T05:22:34;38.92;;;13.77;;
29044;SDS011;16133;49.486;12.176;2022-12-11T05:25:00;42.55;;;13.65;;
29044;SDS011;16133;49.486;12.176;2022-12-11T05:27:25;42.85;;;14.20;;
29044;SDS011;16133;49.486;12.176;2022-12-11T05:29:51;37.10;;;14.57;;
29044;SDS011;16133;49.486;12.176;2022-12-11T05:32:16;46.97;;;15.98;;
29044;SDS011;16133;49.486;12.176;2022-12-11T05:34:41;48.83;;;18.20;;
29044;SDS011;16133;49.486;12.176;2022-12-11T05:37:07;43.75;;;17.00;;
29044;SDS011;16133;49.486;12.176;2022-12-11T05:39:32;48.05;;;17.92;;
29044;SDS011;16133;49.486;12.176;2022-12-11T05:41:57;43.38;;;15.75;;
29044;SDS011;16133;49.486;12.176;2022-12-11T05:44:23;43.42;;;15.75;;
29044;SDS011;16133;49.486;12.176;2022-12-11T05:46:49;44.65;;;16.85;;
29044;SDS011;16133;49.486;12.176;2022-12-11T05:49:14;48.20;;;17.23;;
29044;SDS011;16133;49.486;12.176;2022-12-11T05:51:40;54.22;;;18.15;;
29044;SDS011;16133;49.486;12.176;2022-12-11T05:54:07;49.92;;;18.52;;
29044;SDS011;16133;49.486;12.176;2022-12-11T05:56:33;48.38;;;16.08;;
29044;SDS011;16133;49.486;12.176;2022-12-11T05:58:59;51.60;;;17.83;;
29044;SDS011;16133;49.486;12.176;2022-12-11T06:01:27;56.75;;;19.65;;
29044;SDS011;16133;49.486;12.176;2022-12-11T06:03:55;53.60;;;19.67;;
29044;SDS011;16133;49.486;12.176;2022-12-11T06:06:22;62.13;;;22.73;;
29044;SDS011;16133;49.486;12.176;2022-12-11T06:08:49;71.90;;;22.75;;
29044;SDS011;16133;49.486;12.176;2022-12-11T06:11:15;64.13;;;22.13;;
29044;SDS011;16133;49.486;12.176;2022-12-11T06:13:41;68.38;;;21.00;;
29044;SDS011;16133;49.486;12.176;2022-12-11T06:16:07;72.70;;;23.00;;
29044;SDS011;16133;49.486;12.176;2022-12-11T06:18:36;67.45;;;20.77;;
29044;SDS011;16133;49.486;12.176;2022-12-11T06:21:13;73.35;;;22.30;;
29044;SDS011;16133;49.486;12.176;2022-12-11T06:23:41;63.03;;;20.52;;
29044;SDS011;16133;49.486;12.176;2022-12-11T06:26:08;66.00;;;20.35;;
29044;SDS011;16133;49.486;12.176;2022-12-11T06:28:34;65.38;;;20.90;;
29044;SDS011;16133;49.486;12.176;2022-12-11T06:30:59;59.72;;;20.27;;
29044;SDS011;16133;49.486;12.176;2022-12-11T06:33:25;60.75;;;20.45;;
29044;SDS011;16133;49.486;12.176;2022-12-11T06:35:51;77.75;;;25.52;;
29044;SDS011;16133;49.486;12.176;2022-12-11T06:38:16;72.60;;;24.23;;
29044;SDS011;16133;49.486;12.176;2022-12-11T06:40:42;60.20;;;21.90;;
29044;SDS011;16133;49.486;12.176;2022-12-11T06:43:08;62.88;;;21.23;;
29044;SDS011;16133;49.486;12.176;2022-12-11T06:45:35;58.90;;;21.42;;
29044;SDS011;16133;49.486;12.176;2022-12-11T06:48:01;56.75;;;21.75;;
29044;SDS011;16133;49.486;12.176;2022-12-11T06:50:27;48.13;;;17.55;;
29044;SDS011;16133;49.486;12.176;2022-12-11T06:52:52;47.90;;;17.95;;
29044;SDS011;16133;49.486;12.176;2022-12-11T06:55:19;47.45;;;16.08;;
29044;SDS011;16133;49.486;12.176;2022-12-11T06:57:44;43.25;;;16.77;;
29044;SDS011;16133;49.486;12.176;2022-12-11T07:00:10;46.50;;;16.98;;
29044;SDS011;16133;49.486;12.176;2022-12-11T07:02:35;49.40;;;17.50;;
29044;SDS011;16133;49.486;12.176;2022-12-11T07:05:01;50.50;;;17.67;;
29044;SDS011;16133;49.486;12.176;2022-12-11T07:07:26;49.85;;;16.63;;
29044;SDS011;16133;49.486;12.176;2022-12-11T07:09:52;53.90;;;18.40;;
29044;SDS011;16133;49.486;12.176;2022-12-11T07:12:17;50.63;;;17.50;;
29044;SDS011;16133;49.486;12.176;2022-12-11T07:14:42;49.03;;;17.90;;
29044;SDS011;16133;49.486;12.176;2022-12-11T07:17:08;53.83;;;19.10;;
29044;SDS011;16133;49.486;12.176;2022-12-11T07:19:33;61.67;;;20.77;;
29044;SDS011;16133;49.486;12.176;2022-12-11T07:21:59;62.00;;;21.55;;
29044;SDS011;16133;49.486;12.176;2022-12-11T07:24:24;63.95;;;20.10;;
29044;SDS011;16133;49.486;12.176;2022-12-11T07:26:49;57.40;;;20.10;;
29044;SDS011;16133;49.486;12.176;2022-12-11T07:29:15;59.83;;;20.40;;
29044;SDS011;16133;49.486;12.176;2022-12-11T07:31:40;56.28;;;18.98;;
29044;SDS011;16133;49.486;12.176;2022-12-11T07:34:06;49.72;;;17.60;;
29044;SDS011;16133;49.486;12.176;2022-12-11T07:36:32;49.55;;;19.13;;
29044;SDS011;16133;49.486;12.176;2022-12-11T07:38:58;48.40;;;17.08;;
29044;SDS011;16133;49.486;12.176;2022-12-11T07:41:24;64.85;;;19.20;;
29044;SDS011;16133;49.486;12.176;2022-12-11T07:43:51;60.00;;;20.88;;
29044;SDS011;16133;49.486;12.176;2022-12-11T07:46:19;55.38;;;20.08;;
29044;SDS011;16133;49.486;12.176;2022-12-11T07:48:46;54.90;;;20.63;;
29044;SDS011;16133;49.486;12.176;2022-12-11T07:51:16;64.63;;;21.70;;
29044;SDS011;16133;49.486;12.176;2022-12-11T07:53:47;52.55;;;19.20;;
29044;SDS011;16133;49.486;12.176;2022-12-11T07:56:14;66.65;;;21.95;;
29044;SDS011;16133;49.486;12.176;2022-12-11T07:58:40;64.05;;;21.65;;
29044;SDS011;16133;49.486;12.176;2022-12-11T08:01:09;59.28;;;20.10;;
29044;SDS011;16133;49.486;12.176;2022-12-11T08:03:36;61.50;;;20.70;;
29044;SDS011;16133;49.486;12.176;2022-12-11T08:06:02;65.63;;;22.80;;
29044;SDS011;16133;49.486;12.176;2022-12-11T08:08:27;62.13;;;20.77;;
29044;SDS011;16133;49.486;12.176;2022-12-11T08:10:52;57.42;;;20.00;;
29044;SDS011;16133;49.486;12.176;2022-12-11T08:13:18;59.15;;;24.52;;
29044;SDS011;16133;49.486;12.176;2022-12-11T08:15:43;61.08;;;24.50;;
29044;SDS011;16133;49.486;12.176;2022-12-11T08:18:08;58.65;;;22.55;;
29044;SDS011;16133;49.486;12.176;2022-12-11T08:20:36;54.55;;;20.80;;
29044;SDS011;16133;49.486;12.176;2022-12-11T08:23:02;49.15;;;19.88;;
29044;SDS011;16133;49.486;12.176;2022-12-11T08:25:27;51.15;;;19.15;;
29044;SDS011;16133;49.486;12.176;2022-12-11T08:27:52;48.70;;;18.80;;
29044;SDS011;16133;49.486;12.176;2022-12-11T08:30:18;48.42;;;18.70;;
29044;SDS011;16133;49.486;12.176;2022-12-11T08:32:43;52.28;;;19.77;;
29044;SDS011;16133;49.486;12.176;2022-12-11T08:35:08;53.72;;;19.25;;
29044;SDS011;16133;49.486;12.176;2022-12-11T08:37:34;59.67;;;22.70;;
29044;SDS011;16133;49.486;12.176;2022-12-11T08:39:59;65.65;;;23.90;;
29044;SDS011;16133;49.486;12.176;2022-12-11T08:42:24;61.60;;;22.10;;
29044;SDS011;16133;49.486;12.176;2022-12-11T08:44:50;54.47;;;21.48;;
29044;SDS011;16133;49.486;12.176;2022-12-11T08:47:16;56.45;;;21.80;;
29044;SDS011;16133;49.486;12.176;2022-12-11T08:49:41;53.58;;;18.92;;
29044;SDS011;16133;49.486;12.176;2022-12-11T08:52:07;56.28;;;18.88;;
29044;SDS011;16133;49.486;12.176;2022-12-11T08:54:32;50.42;;;19.30;;
29044;SDS011;16133;49.486;12.176;2022-12-11T08:56:57;57.30;;;20.38;;
29044;SDS011;16133;49.486;12.176;2022-12-11T08:59:23;47.83;;;18.75;;
29044;SDS011;16133;49.486;12.176;2022-12-11T09:01:49;51.30;;;20.02;;
29044;SDS011;16133;49.486;12.176;2022-12-11T09:04:15;59.05;;;21.58;;
29044;SDS011;16133;49.486;12.176;2022-12-11T09:06:41;58.40;;;21.65;;
29044;SDS011;16133;49.486;12.176;2022-12-11T09:09:06;48.40;;;18.77;;
29044;SDS011;16133;49.486;12.176;2022-12-11T09:11:32;47.90;;;18.75;;
29044;SDS011;16133;49.486;12.176;2022-12-11T09:14:00;43.58;;;16.40;;
29044;SDS011;16133;49.486;12.176;2022-12-11T09:16:29;45.65;;;17.20;;
29044;SDS011;16133;49.486;12.176;2022-12-11T09:18:56;51.13;;;19.52;;
29044;SDS011;16133;49.486;12.176;2022-12-11T09:21:24;49.25;;;18.33;;
29044;SDS011;16133;49.486;12.176;2022-12-11T09:23:57;49.72;;;19.33;;
29044;SDS011;16133;49.486;12.176;2022-12-11T09:26:25;43.65;;;17.67;;
29044;SDS011;16133;49.486;12.176;2022-12-11T09:28:51;42.80;;;16.23;;
29044;SDS011;16133;49.486;12.176;2022-12-11T09:31:18;36.90;;;15.77;;
29044;SDS011;16133;49.486;12.176;2022-12-11T09:33:44;36.53;;;14.90;;
29044;SDS011;16133;49.486;12.176;2022-12-11T09:36:10;34.22;;;13.70;;
29044;SDS011;16133;49.486;12.176;2022-12-11T09:38:36;37.88;;;15.18;;
29044;SDS011;16133;49.486;12.176;2022-12-11T09:41:10;34.80;;;13.93;;
29044;SDS011;16133;49.486;12.176;2022-12-11T09:43:45;24.45;;;10.55;;
29044;SDS011;16133;49.486;12.176;2022-12-11T09:46:14;24.63;;;10.77;;
29044;SDS011;16133;49.486;12.176;2022-12-11T09:48:43;26.50;;;10.30;;
29044;SDS011;16133;49.486;12.176;2022-12-11T09:51:17;19.42;;;8.55;;
29044;SDS011;16133;49.486;12.176;2022-12-11T09:54:04;24.58;;;10.55;;
29044;SDS011;16133;49.486;12.176;2022-12-11T09:56:44;25.67;;;10.63;;
29044;SDS011;16133;49.486;12.176;2022-12-11T10:08:07;20.98;;;9.23;;
29044;SDS011;16133;49.486;12.176;2022-12-11T10:16:34;16.58;;;7.43;;
29044;SDS011;16133;49.486;12.176;2022-12-11T10:19:04;18.92;;;7.65;;
29044;SDS011;16133;49.486;12.176;2022-12-11T10:21:32;17.50;;;8.20;;
29044;SDS011;16133;49.486;12.176;2022-12-11T10:24:04;19.00;;;7.97;;
29044;SDS011;16133;49.486;12.176;2022-12-11T10:26:46;22.17;;;8.43;;
29044;SDS011;16133;49.486;12.176;2022-12-11T10:29:12;17.80;;;8.52;;
29044;SDS011;16133;49.486;12.176;2022-12-11T10:34:09;18.33;;;8.35;;
29044;SDS011;16133;49.486;12.176;2022-12-11T10:36:38;20.23;;;9.30;;
29044;SDS011;16133;49.486;12.176;2022-12-11T10:39:13;16.50;;;7.10;;
29044;SDS011;16133;49.486;12.176;2022-12-11T10:41:46;17.90;;;8.48;;
29044;SDS011;16133;49.486;12.176;2022-12-11T10:44:17;18.95;;;8.32;;
29044;SDS011;16133;49.486;12.176;2022-12-11T10:49:41;18.02;;;7.82;;
29044;SDS011;16133;49.486;12.176;2022-12-11T10:52:19;15.65;;;7.28;;
29044;SDS011;16133;49.486;12.176;2022-12-11T10:54:53;17.35;;;7.82;;
29044;SDS011;16133;49.486;12.176;2022-12-11T10:57:29;15.73;;;7.60;;
29044;SDS011;16133;49.486;12.176;2022-12-11T10:59:58;18.58;;;8.98;;
29044;SDS011;16133;49.486;12.176;2022-12-11T11:02:25;16.25;;;7.70;;
29044;SDS011;16133;49.486;12.176;2022-12-11T11:04:56;17.27;;;7.07;;
29044;SDS011;16133;49.486;12.176;2022-12-11T11:07:27;18.08;;;7.50;;
29044;SDS011;16133;49.486;12.176;2022-12-11T11:10:04;15.57;;;6.95;;
29044;SDS011;16133;49.486;12.176;2022-12-11T11:12:35;16.00;;;7.88;;
29044;SDS011;16133;49.486;12.176;2022-12-11T11:18:40;16.73;;;6.95;;
29044;SDS011;16133;49.486;12.176;2022-12-11T11:20:50;16.10;;;7.13;;
29044;SDS011;16133;49.486;12.176;2022-12-11T11:23:16;17.20;;;8.00;;
29044;SDS011;16133;49.486;12.176;2022-12-11T11:28:24;20.05;;;8.05;;
29044;SDS011;16133;49.486;12.176;2022-12-11T11:31:09;17.92;;;9.20;;
29044;SDS011;16133;49.486;12.176;2022-12-11T11:33:47;16.63;;;8.30;;
29044;SDS011;16133;49.486;12.176;2022-12-11T11:36:24;17.90;;;7.50;;
29044;SDS011;16133;49.486;12.176;2022-12-11T11:44:39;14.38;;;6.63;;
29044;SDS011;16133;49.486;12.176;2022-12-11T11:47:44;17.60;;;7.65;;
29044;SDS011;16133;49.486;12.176;2022-12-11T11:50:11;14.57;;;6.45;;
29044;SDS011;16133;49.486;12.176;2022-12-11T11:52:43;17.30;;;8.13;;
29044;SDS011;16133;49.486;12.176;2022-12-11T11:55:16;17.55;;;7.85;;
29044;SDS011;16133;49.486;12.176;2022-12-11T11:57:55;18.02;;;6.82;;
29044;SDS011;16133;49.486;12.176;2022-12-11T12:00:33;20.65;;;7.82;;
29044;SDS011;16133;49.486;12.176;2022-12-11T12:03:00;14.38;;;6.95;;
29044;SDS011;16133;49.486;12.176;2022-12-11T12:10:52;15.93;;;6.72;;
29044;SDS011;16133;49.486;12.176;2022-12-11T12:27:29;12.38;;;5.57;;
29044;SDS011;16133;49.486;12.176;2022-12-11T12:30:08;12.73;;;4.90;;
29044;SDS011;16133;49.486;12.176;2022-12-11T12:32:53;12.02;;;5.88;;
29044;SDS011;16133;49.486;12.176;2022-12-11T12:35:27;14.65;;;5.85;;
29044;SDS011;16133;49.486;12.176;2022-12-11T12:38:18;13.70;;;6.30;;
29044;SDS011;16133;49.486;12.176;2022-12-11T12:46:49;14.57;;;6.97;;
29044;SDS011;16133;49.486;12.176;2022-12-11T12:49:31;19.38;;;8.27;;
29044;SDS011;16133;49.486;12.176;2022-12-11T12:52:01;17.88;;;7.78;;
29044;SDS011;16133;49.486;12.176;2022-12-11T12:54:28;14.77;;;7.30;;
29044;SDS011;16133;49.486;12.176;2022-12-11T12:56:56;13.48;;;5.95;;
29044;SDS011;16133;49.486;12.176;2022-12-11T12:59:24;14.00;;;6.00;;
29044;SDS011;16133;49.486;12.176;2022-12-11T13:01:54;20.98;;;8.38;;
29044;SDS011;16133;49.486;12.176;2022-12-11T13:04:43;14.15;;;6.95;;
29044;SDS011;16133;49.486;12.176;2022-12-11T13:07:21;16.27;;;7.43;;
29044;SDS011;16133;49.486;12.176;2022-12-11T13:09:57;16.27;;;7.50;;
29044;SDS011;16133;49.486;12.176;2022-12-11T13:12:30;21.58;;;8.60;;
29044;SDS011;16133;49.486;12.176;2022-12-11T13:14:57;15.53;;;7.70;;
29044;SDS011;16133;49.486;12.176;2022-12-11T13:17:25;19.65;;;8.70;;
29044;SDS011;16133;49.486;12.176;2022-12-11T13:20:18;19.17;;;8.25;;
29044;SDS011;16133;49.486;12.176;2022-12-11T13:25:30;21.13;;;7.18;;
29044;SDS011;16133;49.486;12.176;2022-12-11T13:28:17;17.63;;;7.45;;
29044;SDS011;16133;49.486;12.176;2022-12-11T13:31:54;14.68;;;6.95;;
29044;SDS011;16133;49.486;12.176;2022-12-11T13:33:42;14.65;;;6.30;;
29044;SDS011;16133;49.486;12.176;2022-12-11T13:38:36;13.13;;;5.53;;
29044;SDS011;16133;49.486;12.176;2022-12-11T13:41:08;12.18;;;5.82;;
29044;SDS011;16133;49.486;12.176;2022-12-11T13:43:36;11.52;;;5.35;;
29044;SDS011;16133;49.486;12.176;2022-12-11T13:46:06;22.40;;;8.95;;
29044;SDS011;16133;49.486;12.176;2022-12-11T13:48:39;22.70;;;8.48;;
29044;SDS011;16133;49.486;12.176;2022-12-11T13:51:18;12.45;;;5.78;;
29044;SDS011;16133;49.486;12.176;2022-12-11T13:53:46;11.27;;;5.50;;
29044;SDS011;16133;49.486;12.176;2022-12-11T13:56:15;8.65;;;4.72;;
29044;SDS011;16133;49.486;12.176;2022-12-11T13:58:42;11.65;;;5.03;;
29044;SDS011;16133;49.486;12.176;2022-12-11T14:01:11;12.85;;;5.68;;
29044;SDS011;16133;49.486;12.176;2022-12-11T14:03:40;23.67;;;9.23;;
29044;SDS011;16133;49.486;12.176;2022-12-11T14:06:12;20.50;;;7.93;;
29044;SDS011;16133;49.486;12.176;2022-12-11T14:08:39;17.33;;;7.28;;
29044;SDS011;16133;49.486;12.176;2022-12-11T14:11:11;20.55;;;8.18;;
29044;SDS011;16133;49.486;12.176;2022-12-11T14:13:46;15.68;;;6.78;;
29044;SDS011;16133;49.486;12.176;2022-12-11T14:16:13;12.10;;;6.05;;
29044;SDS011;16133;49.486;12.176;2022-12-11T14:18:46;16.25;;;7.15;;
29044;SDS011;16133;49.486;12.176;2022-12-11T14:21:18;15.13;;;6.22;;
29044;SDS011;16133;49.486;12.176;2022-12-11T14:23:52;16.25;;;6.43;;
29044;SDS011;16133;49.486;12.176;2022-12-11T14:26:21;20.40;;;8.23;;
29044;SDS011;16133;49.486;12.176;2022-12-11T14:28:51;17.38;;;7.28;;
29044;SDS011;16133;49.486;12.176;2022-12-11T14:31:33;16.60;;;7.35;;
29044;SDS011;16133;49.486;12.176;2022-12-11T14:34:02;17.95;;;7.65;;
29044;SDS011;16133;49.486;12.176;2022-12-11T14:36:35;13.45;;;6.20;;
29044;SDS011;16133;49.486;12.176;2022-12-11T14:39:02;16.88;;;7.40;;
29044;SDS011;16133;49.486;12.176;2022-12-11T14:44:21;16.52;;;7.00;;
29044;SDS011;16133;49.486;12.176;2022-12-11T14:46:53;19.58;;;8.07;;
29044;SDS011;16133;49.486;12.176;2022-12-11T14:52:01;22.08;;;8.30;;
29044;SDS011;16133;49.486;12.176;2022-12-11T14:54:32;24.85;;;9.63;;
29044;SDS011;16133;49.486;12.176;2022-12-11T14:57:04;20.95;;;8.80;;
29044;SDS011;16133;49.486;12.176;2022-12-11T14:59:31;17.38;;;7.55;;
29044;SDS011;16133;49.486;12.176;2022-12-11T15:02:21;21.25;;;8.40;;
29044;SDS011;16133;49.486;12.176;2022-12-11T15:07:34;20.38;;;8.43;;
29044;SDS011;16133;49.486;12.176;2022-12-11T15:10:00;28.70;;;10.20;;
29044;SDS011;16133;49.486;12.176;2022-12-11T15:12:26;29.63;;;11.75;;
29044;SDS011;16133;49.486;12.176;2022-12-11T15:14:59;31.45;;;12.25;;
29044;SDS011;16133;49.486;12.176;2022-12-11T15:17:26;35.78;;;12.15;;
29044;SDS011;16133;49.486;12.176;2022-12-11T15:19:54;38.28;;;14.13;;
29044;SDS011;16133;49.486;12.176;2022-12-11T15:22:26;20.02;;;8.52;;
29044;SDS011;16133;49.486;12.176;2022-12-11T15:24:55;48.60;;;17.70;;
29044;SDS011;16133;49.486;12.176;2022-12-11T15:27:32;25.48;;;10.45;;
29044;SDS011;16133;49.486;12.176;2022-12-11T15:30:23;21.08;;;9.63;;
29044;SDS011;16133;49.486;12.176;2022-12-11T15:35:33;21.10;;;9.93;;
29044;SDS011;16133;49.486;12.176;2022-12-11T15:37:58;19.50;;;8.98;;
29044;SDS011;16133;49.486;12.176;2022-12-11T15:40:24;26.58;;;11.15;;
29044;SDS011;16133;49.486;12.176;2022-12-11T15:42:51;28.10;;;11.25;;
29044;SDS011;16133;49.486;12.176;2022-12-11T15:45:28;29.70;;;11.35;;
29044;SDS011;16133;49.486;12.176;2022-12-11T15:47:53;26.67;;;10.48;;
29044;SDS011;16133;49.486;12.176;2022-12-11T15:52:46;22.40;;;9.85;;
29044;SDS011;16133;49.486;12.176;2022-12-11T15:55:12;20.45;;;9.18;;
29044;SDS011;16133;49.486;12.176;2022-12-11T15:57:38;23.45;;;10.57;;
29044;SDS011;16133;49.486;12.176;2022-12-11T16:00:13;25.10;;;11.35;;
29044;SDS011;16133;49.486;12.176;2022-12-11T16:02:40;29.63;;;12.25;;
29044;SDS011;16133;49.486;12.176;2022-12-11T16:05:05;25.50;;;10.10;;